Tiempo atmosférico en la estación meteorológica de Serradilla, Cáceres (410 m.)



Fecha
DESCASC
Temp. máxima en grados centígrados (hora)
DESCASC
Temp. mínima en grados centígrados (hora)
DESCASC
Temp. media en grados centígrados
DESCASC
Racha de viento máxima en m/sg (hora)
DESCASC
Velocidad máxima media en intervalos de 10 minutos(hora)
DESCASC
Precipitaciones diarias en mm
DESCASC
Precipitaciones de 00:00 a 06:00 en mm
DESCASC
Precipitaciones de 06:00 a 12:00 en mm
DESCASC
Precipitaciones de 12:00 a 18:00 en mm
DESCASC
Precipitaciones de 18:00 a 24:00 en mm
DESCASC
02-08-2020 35.9 (16:40) 17.2 (07:00) 26.6 14.17 (23:30) 8.33 (23:30) 0 0 0 0 0
01-08-2020 37.3 (16:20) 18.9 (07:40) 28.1 9.17 (17:50) 5.56 (17:50) 0 0 0 0 0
31-07-2020 39.2 (17:10) 20.5 (07:20) 29.9 8.33 (16:50) 3.89 (23:20) 0 0 0 0 0
30-07-2020 37.7 (17:10) 22.1 (00:00) 29.9 10 (17:30) 5.56 (17:30) 0 0 0 0 0
29-07-2020 40.7 (17:20) 21.1 (00:00) 30.9 6.94 (14:50) 3.61 (18:20) 0 0 0 0 0
28-07-2020 37.6 (17:20) 21.5 (00:00) 29.5 8.06 (00:10) 5 (00:20) 0 0 0 0 0
27-07-2020 39.1 (17:30) 23.4 (00:00) 31.2 8.61 (15:00) 5.28 (14:40) 0 0 0 0 0
26-07-2020 40.2 (18:10) 22.7 (00:00) 31.5 11.67 (00:40) 7.78 (00:30) 0 0 0 0 0
25-07-2020 39 (17:00) 21.8 (00:00) 30.4 11.67 (01:50) 7.22 (01:50) 0 0 0 0 0
24-07-2020 37.3 (17:10) 25 (00:00) 31.1 11.11 (02:40) 6.67 (00:20) 0 0 0 0 0
23-07-2020 38 (17:10) 21 (00:00) 29.5 11.67 (23:30) 7.78 (23:20) 0 0 0 0 0
22-07-2020 33.9 (17:20) 19.3 (00:00) 26.6 10.83 (02:00) 6.11 (02:00) 5 5 0 0 0
21-07-2020 32.5 (11:50) 19.9 (00:00) 26.2 10.28 (15:10) 6.39 (09:10) 11.6 0 0 0 11.6
20-07-2020 38.9 (17:10) 19.8 (00:00) 29.4 7.78 (14:30) 4.44 (19:30) 0 0 0 0 0
19-07-2020 37.7 (17:50) 22.1 (00:00) 29.9 11.67 (18:40) 6.11 (19:00) 0 0 0 0 0
18-07-2020 38.8 (18:00) 23.8 (00:00) 31.3 11.11 (09:20) 7.22 (09:20) 0 0 0 0 0
17-07-2020 38.7 (17:30) 25.5 (00:00) 32.1 10 (09:30) 6.39 (09:20) 0 0 0 0 0
16-07-2020 37.6 (17:00) 24 (00:00) 30.8 14.17 (05:50) 7.22 (08:20) 0 0 0 0 0
15-07-2020 35.3 (17:40) 21.7 (00:00) 28.5 13.61 (02:30) 8.06 (05:50) 0 0 0 0 0
14-07-2020 36.2 (16:00) 24.8 (00:00) 30.5 10 (10:50) 5.83 (09:20) 0 0 0 0 0
13-07-2020 36.6 (17:40) 23.4 (00:00) 30 10.28 (22:20) 6.39 (10:10) 0 0 0 0 0
12-07-2020 35.4 (15:10) 22.9 (07:20) 29.2 17.22 (01:20) 11.11 (01:30) 0 0 0 0 0
11-07-2020 38.5 (16:40) 23.9 (06:50) 31.2 14.44 (23:30) 9.17 (23:30) 0 0 0 0 0
10-07-2020 37 (16:40) 22 (00:00) 29.5 10.56 (05:00) 6.94 (05:20) 0 0 0 0 0
09-07-2020 35.8 (17:50) 18.6 (07:20) 27.2 6.94 (15:50) 3.61 (23:50) 0 0 0 0 0
08-07-2020 37.2 (15:30) 21.7 (07:40) 29.5 14.72 (16:00) 6.11 (18:00) 0.2 0.2 0 0 0

Gráficas

Temp. máximas Temp. mínimas Temp. medias Precipitaciones Rachas de viento máximas Velocidades máximas media en intervalos de 10 minutos

Datos horarios

Fecha y hora oficial Temperatura (ºC) Velocidad del viento (km/h) Dirección del viento Racha (km/h) Dirección de racha Precipitación (mm) Presión (hPa) Tendencia (hPa) Humedad (%)
2020-08-06 23:00:00 32.9 0 Calma 5 Oeste 0 -- -- 25
2020-08-06 22:00:00 33.9 3 Sur 9 Sur 0 -- -- 25
2020-08-06 21:00:00 37 5 Sur 20 Sur 0 -- -- 21
2020-08-06 20:00:00 38 13 Sudoeste 23 Sur 0 -- -- 20
2020-08-06 19:00:00 39 12 Sur 33 Sudeste 0 -- -- 19
2020-08-06 18:00:00 39.2 15 Sur 32 Sudoeste 0 -- -- 19
2020-08-06 17:00:00 38.9 17 Sudeste 32 Sudoeste 0 -- -- 19
2020-08-06 16:00:00 38.8 14 Sur 37 Sur 0 -- -- 20
2020-08-06 15:00:00 38.1 19 Sudeste 39 Sur 0 -- -- 21
2020-08-06 14:00:00 37.2 19 Sudeste 39 Sur 0 -- -- 26
2020-08-06 13:00:00 35.4 13 Este 31 Nordeste 0 -- -- 29
2020-08-06 12:00:00 33.4 16 Nordeste 30 Este 0 -- -- 33
2020-08-06 11:00:00 30.8 17 Nordeste 33 Este 0 -- -- 39
2020-08-06 10:00:00 27.8 21 Nordeste 32 Nordeste 0 -- -- 42
2020-08-06 09:00:00 25.8 21 Nordeste 28 Nordeste 0 -- -- 40
2020-08-06 08:00:00 24.8 8 Nordeste 13 Nordeste 0 -- -- 40
2020-08-06 07:00:00 25 6 Este 14 Nordeste 0 -- -- 38
2020-08-06 06:00:00 25.5 10 Nordeste 12 Nordeste 0 -- -- 35
2020-08-06 05:00:00 26.1 7 Este 9 Este 0 -- -- 32
2020-08-06 04:00:00 25.7 6 Nordeste 10 Nordeste 0 -- -- 32
2020-08-06 03:00:00 27.6 4 Oeste 10 Sudoeste 0 -- -- 29
2020-08-06 02:00:00 29.4 6 Sudeste 8 Este 0 -- -- 27
2020-08-06 01:00:00 29.3 5 Nordeste 8 Este 0 -- -- 26
2020-08-06 00:00:00 30.7 6 Este 8 Este 0 -- -- 24
2020-08-05 23:00:00 31.8 4 Norte 11 Norte 0 -- -- 22
2020-08-05 22:00:00 32.4 4 Norte 12 Noroeste 0 -- -- 22
2020-08-05 21:00:00 35 8 Noroeste 14 Noroeste 0 -- -- 20
2020-08-05 20:00:00 36.1 6 Noroeste 19 Norte 0 -- -- 20
2020-08-05 19:00:00 37.1 14 Nordeste 22 Norte 0 -- -- 19
2020-08-05 18:00:00 38.5 3 Oeste 23 Sudoeste 0 -- -- 17
2020-08-05 17:00:00 38 10 Noroeste 15 Noroeste 0 -- -- 19
2020-08-05 16:00:00 38.4 8 Sudoeste 18 Oeste 0 -- -- 18
2020-08-05 15:00:00 37.4 5 Nordeste 17 Sudoeste 0 -- -- 19
2020-08-05 14:00:00 36.4 7 Sur 17 Este 0 -- -- 21
2020-08-05 13:00:00 34.3 6 Este 25 Este 0 -- -- 24
2020-08-05 12:00:00 32.1 15 Este 26 Nordeste 0 -- -- 28
2020-08-05 11:00:00 29.9 16 Nordeste 33 Nordeste 0 -- -- 30
2020-08-05 10:00:00 27.3 17 Este 27 Nordeste 0 -- -- 33
2020-08-05 09:00:00 25.2 16 Nordeste 30 Nordeste 0 -- -- 36
2020-08-05 08:00:00 22.9 7 Este 19 Nordeste 0 -- -- 42
2020-08-05 07:00:00 24.4 15 Nordeste 25 Nordeste 0 -- -- 37
2020-08-05 06:00:00 24.1 6 Este 16 Norte 0 -- -- 37
2020-08-05 05:00:00 27.3 13 Norte 22 Norte 0 -- -- 30
2020-08-05 04:00:00 26.6 6 Norte 21 Norte 0 -- -- 32
2020-08-05 03:00:00 27.2 5 Este 23 Norte 0 -- -- 30
2020-08-05 02:00:00 28.1 15 Norte 27 Norte 0 -- -- 29
2020-08-05 01:00:00 28.2 13 Norte 23 Norte 0 -- -- 31
2020-08-05 00:00:00 30 15 Noroeste 25 Noroeste 0 -- -- 27
2020-08-04 23:00:00 29.5 7 Noroeste 13 Noroeste 0 -- -- 28
2020-08-04 22:00:00 29.9 8 Noroeste 11 Noroeste 0 -- -- 27
2020-08-04 21:00:00 32.8 8 Noroeste 16 Noroeste 0 -- -- 22
2020-08-04 20:00:00 33.9 6 Norte 21 Noroeste 0 -- -- 19
2020-08-04 19:00:00 35 10 Noroeste 22 Oeste 0 -- -- 19
2020-08-04 18:00:00 35.8 8 Este 21 Nordeste 0 -- -- 20
2020-08-04 17:00:00 35.5 6 Noroeste 21 Sudeste 0 -- -- 21
2020-08-04 16:00:00 34.7 11 Este 27 Este 0 -- -- 23
2020-08-04 15:00:00 34.2 8 Este 28 Este 0 -- -- 23
2020-08-04 14:00:00 32.7 17 Este 36 Nordeste 0 -- -- 28
2020-08-04 13:00:00 31 23 Nordeste 39 Nordeste 0 -- -- 31
2020-08-04 12:00:00 29.5 21 Este 35 Este 0 -- -- 33
2020-08-04 11:00:00 27.2 25 Nordeste 39 Este 0 -- -- 35
2020-08-04 10:00:00 25.6 22 Nordeste 42 Nordeste 0 -- -- 39
2020-08-04 09:00:00 23.8 24 Nordeste 47 Nordeste 0 -- -- 42
2020-08-04 08:00:00 23.6 24 Nordeste 43 Este 0 -- -- 40
2020-08-04 07:00:00 23.9 18 Nordeste 33 Nordeste 0 -- -- 38
2020-08-04 06:00:00 24.3 16 Nordeste 25 Nordeste 0 -- -- 35
2020-08-04 05:00:00 24.7 11 Nordeste 22 Norte 0 -- -- 36
2020-08-04 04:00:00 24.5 12 Norte 33 Noroeste 0 -- -- 40
2020-08-04 03:00:00 25.3 20 Norte 39 Noroeste 0 -- -- 41
2020-08-04 02:00:00 26.1 24 Norte 40 Noroeste 0 -- -- 37
2020-08-04 01:00:00 27.3 22 Norte 39 Norte 0 -- -- 32
2020-08-04 00:00:00 28.1 20 Norte 40 Norte 0 -- -- 31
2020-08-03 23:00:00 29.1 19 Noroeste 31 Norte 0 -- -- 30
2020-08-03 22:00:00 29.4 13 Noroeste 21 Noroeste 0 -- -- 30
2020-08-03 21:00:00 31.5 8 Oeste 19 Oeste 0 -- -- 29
2020-08-03 20:00:00 32.6 10 Noroeste 19 Noroeste 0 -- -- 27
2020-08-03 19:00:00 33.7 11 Oeste 25 Noroeste 0 -- -- 25
2020-08-03 18:00:00 33.9 12 Noroeste 23 Noroeste 0 -- -- 24
2020-08-03 17:00:00 34 12 Noroeste 32 Noroeste 0 -- -- 25
2020-08-03 16:00:00 33.6 14 Norte 29 Noroeste 0 -- -- 26
2020-08-03 15:00:00 33.4 13 Oeste 30 Sudoeste 0 -- -- 27
2020-08-03 14:00:00 32.5 7 Norte 22 Norte 0 -- -- 28
2020-08-03 13:00:00 30.9 14 Noroeste 24 Noroeste 0 -- -- 31
2020-08-03 12:00:00 30.4 7 Este 21 Este 0 -- -- 31
2020-08-03 11:00:00 28.2 11 Norte 26 Norte 0 -- -- 35
2020-08-03 10:00:00 25.1 14 Norte 32 Norte 0 -- -- 41
2020-08-03 09:00:00 22.2 21 Norte 36 Noroeste 0 -- -- 48
2020-08-03 08:00:00 21.7 18 Norte 37 Norte 0 -- -- 44
2020-08-03 07:00:00 22.3 17 Norte 48 Noroeste 0 -- -- 41
2020-08-03 06:00:00 23.4 24 Noroeste 41 Noroeste 0 -- -- 37
2020-08-03 05:00:00 24.4 23 Norte 52 Noroeste 0 -- -- 35
2020-08-03 04:00:00 25.2 25 Noroeste 48 Noroeste 0 -- -- 31
2020-08-03 03:00:00 25.4 18 Noroeste 32 Noroeste 0 -- -- 30
2020-08-03 02:00:00 26 17 Noroeste 28 Noroeste 0 -- -- 29
2020-08-03 01:00:00 27.1 20 Noroeste 41 Norte 0 -- -- 27
2020-08-03 00:00:00 28.4 23 Noroeste 51 Noroeste 0 -- -- 25
2020-08-02 23:00:00 29.2 25 Noroeste 44 Noroeste 0 -- -- 29
2020-08-02 22:00:00 30.2 20 Noroeste 34 Noroeste 0 -- -- 29
2020-08-02 21:00:00 31.9 15 Noroeste 37 Noroeste 0 -- -- 25
2020-08-02 20:00:00 33.5 15 Noroeste 27 Oeste 0 -- -- 23
2020-08-02 19:00:00 35.3 11 Oeste 27 Oeste 0 -- -- 15
2020-08-02 18:00:00 34.8 12 Oeste 30 Noroeste 0 -- -- 17
2020-08-02 17:00:00 35.9 10 Oeste 32 Oeste 0 -- -- 21
2020-08-02 16:00:00 35 11 Oeste 22 Oeste 0 -- -- 23
2020-08-02 15:00:00 33.9 11 Oeste 23 Noroeste 0 -- -- 27
2020-08-02 14:00:00 32.5 10 Noroeste 36 Noroeste 0 -- -- 29
2020-08-02 13:00:00 31.1 15 Noroeste 27 Noroeste 0 -- -- 31
2020-08-02 12:00:00 30 10 Noroeste 20 Oeste 0 -- -- 35
2020-08-02 11:00:00 27.4 5 Oeste 17 Sudoeste 0 -- -- 41
2020-08-02 10:00:00 22.6 6 Sudoeste 12 Oeste 0 -- -- 53
2020-08-02 09:00:00 18.6 5 Sudoeste 8 Sudoeste 0 -- -- 65
2020-08-02 08:00:00 17.6 0 Calma 6 Oeste 0 -- -- 68
2020-08-02 07:00:00 17.2 0 Calma 6 Oeste 0 -- -- 69
2020-08-02 06:00:00 18.3 6 Oeste 14 Sudoeste 0 -- -- 67
2020-08-02 05:00:00 19.5 8 Oeste 15 Oeste 0 -- -- 62
2020-08-02 04:00:00 21 10 Oeste 15 Sudoeste 0 -- -- 57
2020-08-02 03:00:00 22.6 9 Sudoeste 16 Oeste 0 -- -- 53
2020-08-02 02:00:00 24.9 14 Sudoeste 22 Oeste 0 -- -- 48
2020-08-02 01:00:00 25.7 10 Oeste 21 Oeste 0 -- -- 41
2020-08-02 00:00:00 28.7 12 Sudoeste 26 Sudoeste 0 -- -- 30
2020-08-01 23:00:00 30.2 11 Oeste 27 Oeste 0 -- -- 28
2020-08-01 22:00:00 31.4 9 Oeste 19 Oeste 0 -- -- 27
2020-08-01 21:00:00 34.5 10 Oeste 28 Oeste 0 -- -- 26
2020-08-01 20:00:00 35.5 14 Oeste 29 Oeste 0 -- -- 25
2020-08-01 19:00:00 36.9 10 Oeste 29 Oeste 0 -- -- 23
2020-08-01 18:00:00 37.1 13 Sudoeste 33 Sudoeste 0 -- -- 22
2020-08-01 17:00:00 37.2 13 Oeste 30 Sur 0 -- -- 19
2020-08-01 16:00:00 37 10 Sudoeste 27 Sudoeste 0 -- -- 18
2020-08-01 15:00:00 36.1 10 Oeste 24 Oeste 0 -- -- 17
2020-08-01 14:00:00 35 12 Oeste 22 Sudoeste 0 -- -- 18
2020-08-01 13:00:00 33.5 9 Oeste 18 Oeste 0 -- -- 22
2020-08-01 12:00:00 31.5 8 Noroeste 16 Sudoeste 0 -- -- 25
2020-08-01 11:00:00 26.8 6 Sudoeste 12 Sudoeste 0 -- -- 38
2020-08-01 10:00:00 23.3 5 Sur 9 Sudoeste 0 -- -- 44
2020-08-01 09:00:00 20.7 3 Sudoeste 13 Sudoeste 0 -- -- 50
2020-08-01 08:00:00 19.3 4 Oeste 8 Sudoeste 0 -- -- 53
2020-08-01 07:00:00 19.3 6 Oeste 14 Sudoeste 0 -- -- 52
2020-08-01 06:00:00 20.1 8 Oeste 13 Sudoeste 0 -- -- 49
2020-08-01 05:00:00 21.2 3 Oeste 12 Oeste 0 -- -- 49
2020-08-01 04:00:00 23.2 6 Oeste 12 Sudoeste 0 -- -- 44
2020-08-01 03:00:00 25.6 6 Sur 23 Sudoeste 0 -- -- 37
2020-08-01 02:00:00 28 12 Sudoeste 22 Sudoeste 0 -- -- 32
2020-08-01 01:00:00 29.1 16 Sudoeste 27 Sudoeste 0 -- -- 32
2020-08-01 00:00:00 30.6 13 Sudoeste 24 Sudoeste 0 -- -- 26
2020-07-31 23:00:00 31 9 Oeste 16 Oeste 0 -- -- 26
2020-07-31 22:00:00 33.3 7 Sudoeste 14 Sur 0 -- -- 18
2020-07-31 21:00:00 36.5 9 Sudoeste 20 Sudoeste 0 -- -- 15
2020-07-31 20:00:00 37.5 13 Sudoeste 23 Sur 0 -- -- 17
2020-07-31 19:00:00 38.8 8 Sudoeste 24 Sudoeste 0 -- -- 16
2020-07-31 18:00:00 38.7 4 Este 21 Sudoeste 0 -- -- 18
2020-07-31 17:00:00 38.8 9 Sur 30 Sudoeste 0 -- -- 19
2020-07-31 16:00:00 38.1 8 Oeste 21 Oeste 0 -- -- 21
2020-07-31 15:00:00 36.8 5 Norte 22 Sudoeste 0 -- -- 24
2020-07-31 14:00:00 35.9 8 Sur 28 Sur 0 -- -- 26
2020-07-31 13:00:00 34.5 13 Sur 21 Sudoeste 0 -- -- 28
2020-07-31 12:00:00 33 8 Sudoeste 14 Sudoeste 0 -- -- 32
2020-07-31 11:00:00 30.3 3 Sudeste 7 Sur 0 -- -- 38
2020-07-31 10:00:00 26.8 3 Sudoeste 8 Sur 0 -- -- 45
2020-07-31 09:00:00 23.7 2 Nordeste 5 Nordeste 0 -- -- 53
2020-07-31 08:00:00 21.9 3 Este 6 Nordeste 0 -- -- 54
2020-07-31 07:00:00 21.1 4 Este 9 Este 0 -- -- 54
2020-07-31 06:00:00 21.3 4 Nordeste 10 Nordeste 0 -- -- 53
2020-07-31 05:00:00 22.5 5 Nordeste 7 Nordeste 0 -- -- 52
2020-07-31 04:00:00 23.3 3 Este 9 Sudoeste 0 -- -- 52
2020-07-31 03:00:00 25 4 Oeste 13 Sudoeste 0 -- -- 47
2020-07-31 02:00:00 26.2 7 Sudoeste 14 Sudoeste 0 -- -- 43
2020-07-31 01:00:00 29 10 Sudoeste 21 Oeste 0 -- -- 37
2020-07-31 00:00:00 29.5 10 Oeste 21 Oeste 0 -- -- 35
2020-07-30 23:00:00 30.2 7 Oeste 11 Oeste 0 -- -- 27
2020-07-30 22:00:00 31.7 5 Oeste 18 Sudoeste 0 -- -- 24
2020-07-30 21:00:00 34.5 13 Sudoeste 27 Sudoeste 0 -- -- 21
2020-07-30 20:00:00 35.6 12 Sudoeste 26 Sur 0 -- -- 23
2020-07-30 19:00:00 37 11 Sudoeste 30 Sudoeste 0 -- -- 19
2020-07-30 18:00:00 37.1 15 Sudoeste 36 Sur 0 -- -- 20
2020-07-30 17:00:00 37.6 14 Sudoeste 31 Sur 0 -- -- 25
2020-07-30 16:00:00 36.7 12 Sudoeste 29 Sur 0 -- -- 27
2020-07-30 15:00:00 35.9 11 Sudoeste 31 Sudoeste 0 -- -- 29
2020-07-30 14:00:00 35.4 6 Sudeste 21 Sur 0 -- -- 26
2020-07-30 13:00:00 34.3 7 Oeste 19 Sudoeste 0 -- -- 27
2020-07-30 12:00:00 33.1 8 Sudeste 21 Sur 0 -- -- 27
2020-07-30 11:00:00 31 7 Sudeste 16 Este 0 -- -- 33
2020-07-30 10:00:00 28.8 7 Este 15 Este 0 -- -- 36
2020-07-30 09:00:00 26.1 6 Este 14 Este 0 -- -- 40
2020-07-30 08:00:00 23.2 4 Nordeste 7 Nordeste 0 -- -- 44
2020-07-30 07:00:00 22.3 4 Nordeste 13 Sudeste 0 -- -- 47
2020-07-30 06:00:00 24 10 Sudeste 14 Sudeste 0 -- -- 42
2020-07-30 05:00:00 23.7 4 Norte 8 Norte 0 -- -- 43
2020-07-30 04:00:00 25.5 0 Calma 13 Sudoeste 0 -- -- 39
2020-07-30 03:00:00 26.7 4 Sudoeste 10 Sur 0 -- -- 36
2020-07-30 02:00:00 27.8 5 Nordeste 9 Sudoeste 0 -- -- 39
2020-07-30 01:00:00 29.6 5 Oeste 13 Noroeste 0 -- -- 33
2020-07-30 00:00:00 32 6 Sudoeste 12 Oeste 0 -- -- 30
2020-07-29 23:00:00 33.1 7 Norte 9 Norte 0 -- -- 30
2020-07-29 22:00:00 34.8 3 Noroeste 10 Norte 0 -- -- 26
2020-07-29 21:00:00 37.2 3 Noroeste 12 Sudoeste 0 -- -- 20
2020-07-29 20:00:00 38.6 9 Sur 20 Sudoeste 0 -- -- 19
2020-07-29 19:00:00 39.9 12 Sudoeste 23 Sur 0 -- -- 18
2020-07-29 18:00:00 39.8 9 Sudeste 21 Sudoeste 0 -- -- 21
2020-07-29 17:00:00 39.8 5 Nordeste 23 Nordeste 0 -- -- 21
2020-07-29 16:00:00 39.1 11 Sudeste 23 Este 0 -- -- 23
2020-07-29 15:00:00 38.2 9 Nordeste 25 Este 0 -- -- 24
2020-07-29 14:00:00 36.8 10 Nordeste 24 Este 0 -- -- 27
2020-07-29 13:00:00 35.7 12 Este 24 Nordeste 0 -- -- 29
2020-07-29 12:00:00 33.5 9 Este 20 Este 0 -- -- 33
2020-07-29 11:00:00 30.7 8 Este 21 Este 0 -- -- 38
2020-07-29 10:00:00 27.3 3 Sudeste 6 Este 0 -- -- 47
2020-07-29 09:00:00 23.8 3 Este 10 Este 0 -- -- 56
2020-07-29 08:00:00 21.8 0 Calma 5 Este 0 -- -- 63
2020-07-29 07:00:00 21.5 4 Este 6 Este 0 -- -- 63
2020-07-29 06:00:00 22.2 4 Nordeste 4 Nordeste 0 -- -- 64
2020-07-29 05:00:00 23.1 3 Norte 10 Sur 0 -- -- 61
2020-07-29 04:00:00 24 2 Sudeste 7 Sudoeste 0 -- -- 56
2020-07-29 03:00:00 25.5 5 Sudoeste 13 Sudoeste 0 -- -- 50
2020-07-29 02:00:00 27.2 9 Sudoeste 14 Sudoeste 0 -- -- 43
2020-07-29 01:00:00 28.8 6 Sudoeste 15 Sudoeste 0 -- -- 37
2020-07-29 00:00:00 30.4 9 Oeste 12 Oeste 0 -- -- 33
2020-07-28 23:00:00 31.5 6 Noroeste 10 Sudoeste 0 -- -- 32
2020-07-28 22:00:00 32.5 4 Oeste 19 Sudoeste 0 -- -- 31
2020-07-28 21:00:00 35.1 10 Sudoeste 16 Sudoeste 0 -- -- 28
2020-07-28 20:00:00 36.1 8 Oeste 22 Sudoeste 0 -- -- 25
2020-07-28 19:00:00 37.1 5 Sudoeste 23 Oeste 0 -- -- 25
2020-07-28 18:00:00 37.1 5 Noroeste 19 Sudoeste 0 -- -- 25
2020-07-28 17:00:00 37.4 12 Sudoeste 24 Sudoeste 0 -- -- 24
2020-07-28 16:00:00 36.8 12 Sudoeste 27 Sudoeste 0 -- -- 26
2020-07-28 15:00:00 35.6 10 Sudoeste 25 Oeste 0 -- -- 29
2020-07-28 14:00:00 34.3 11 Sudoeste 24 Sudoeste 0 -- -- 34
2020-07-28 13:00:00 31.8 9 Sudoeste 17 Sudoeste 0 -- -- 40
2020-07-28 12:00:00 28.5 8 Sudoeste 17 Sudoeste 0 -- -- 47
2020-07-28 11:00:00 25.2 6 Sudoeste 16 Sudoeste 0 -- -- 56
2020-07-28 10:00:00 22.8 7 Sudoeste 16 Sudoeste 0 -- -- 66
2020-07-28 09:00:00 21.5 6 Oeste 18 Sudoeste 0 -- -- 70
2020-07-28 08:00:00 22.1 10 Sudoeste 15 Sudoeste 0 -- -- 67
2020-07-28 07:00:00 23.1 9 Sudoeste 17 Sudoeste 0 -- -- 62
2020-07-28 06:00:00 23.9 12 Oeste 22 Sudoeste 0 -- -- 59
2020-07-28 05:00:00 24.8 14 Sudoeste 24 Sudoeste 0 -- -- 56
2020-07-28 04:00:00 25.6 15 Sudoeste 22 Sudoeste 0 -- -- 54
2020-07-28 03:00:00 26.1 14 Sudoeste 20 Sudoeste 0 -- -- 52
2020-07-28 02:00:00 27.8 9 Sudoeste 18 Sudoeste 0 -- -- 48
2020-07-28 01:00:00 29.2 7 Oeste 29 Noroeste 0 -- -- 44
2020-07-28 00:00:00 29.9 6 Oeste 25 Sudoeste 0 -- -- 40
2020-07-27 23:00:00 31.4 13 Sudoeste 24 Sudoeste 0 -- -- 30
2020-07-27 22:00:00 32.6 8 Oeste 13 Noroeste 0 -- -- 28
2020-07-27 21:00:00 35.5 8 Oeste 19 Sudoeste 0 -- -- 25
2020-07-27 20:00:00 36.9 13 Sudoeste 22 Sudoeste 0 -- -- 23
2020-07-27 19:00:00 38.1 9 Oeste 23 Sudoeste 0 -- -- 21
2020-07-27 18:00:00 38.1 5 Nordeste 26 Sudeste 0 -- -- 21
2020-07-27 17:00:00 38.9 8 Sur 28 Sudoeste 0 -- -- 20
2020-07-27 16:00:00 38.7 10 Sur 28 Oeste 0 -- -- 21
2020-07-27 15:00:00 37.5 12 Sudoeste 31 Sudoeste 0 -- -- 24
2020-07-27 14:00:00 36.8 11 Sur 27 Sur 0 -- -- 25
2020-07-27 13:00:00 34.7 7 Sur 23 Este 0 -- -- 27
2020-07-27 12:00:00 32.8 6 Sur 17 Sudoeste 0 -- -- 30
2020-07-27 09:00:00 25.3 8 Este 12 Este 0 -- -- 39
2020-07-27 08:00:00 23.7 3 Nordeste 6 Sur 0 -- -- 44
2020-07-27 07:00:00 23.5 0 Calma 8 Este 0 -- -- 40
2020-07-27 06:00:00 25.3 5 Sudeste 9 Este 0 -- -- 36
2020-07-27 05:00:00 26.2 6 Sudeste 9 Este 0 -- -- 35
2020-07-27 04:00:00 29.7 4 Este 21 Norte 0 -- -- 28
2020-07-27 03:00:00 31.1 9 Norte 21 Noroeste 0 -- -- 25
2020-07-27 02:00:00 31.3 6 Sudoeste 12 Sudoeste 0 -- -- 24
2020-07-27 01:00:00 32.1 5 Noroeste 16 Norte 0 -- -- 23
2020-07-27 00:00:00 32.4 10 Norte 22 Norte 0 -- -- 23
2020-07-26 23:00:00 33.7 12 Noroeste 19 Noroeste 0 -- -- 21
2020-07-26 22:00:00 34 10 Noroeste 18 Noroeste 0 -- -- 22
2020-07-26 21:00:00 35.9 8 Norte 18 Noroeste 0 -- -- 21
2020-07-26 20:00:00 38.3 4 Oeste 16 Sudoeste 0 -- -- 18
2020-07-26 19:00:00 39.8 10 Sudoeste 27 Oeste 0 -- -- 17
2020-07-26 18:00:00 40 7 Oeste 24 Sudoeste 0 -- -- 17
2020-07-26 17:00:00 39.5 6 Noroeste 28 Oeste 0 -- -- 18
2020-07-26 16:00:00 39.1 11 Sudoeste 26 Sudoeste 0 -- -- 18
2020-07-26 15:00:00 38.3 9 Noroeste 24 Sur 0 -- -- 19
2020-07-26 14:00:00 37.3 8 Sur 19 Sudeste 0 -- -- 19
2020-07-26 13:00:00 36 8 Este 17 Este 0 -- -- 21
2020-07-26 12:00:00 33.2 10 Este 21 Este 0 -- -- 27
2020-07-26 11:00:00 31.3 7 Este 11 Sudeste 0 -- -- 29
2020-07-26 10:00:00 27.2 5 Este 8 Este 0 -- -- 39
2020-07-26 09:00:00 24.1 3 Sur 5 Sur 0 -- -- 41
2020-07-26 08:00:00 23.1 4 Sudeste 10 Sudeste 0 -- -- 44
2020-07-26 07:00:00 24.9 4 Sudeste 18 Norte 0 -- -- 39
2020-07-26 06:00:00 26.1 5 Norte 27 Norte 0 -- -- 37
2020-07-26 05:00:00 26.3 17 Noroeste 36 Noroeste 0 -- -- 37
2020-07-26 04:00:00 27.3 21 Noroeste 35 Noroeste 0 -- -- 33
2020-07-26 03:00:00 28.3 22 Norte 36 Noroeste 0 -- -- 28
2020-07-26 02:00:00 29 25 Noroeste 41 Noroeste 0 -- -- 27
2020-07-26 01:00:00 29.9 27 Noroeste 42 Noroeste 0 -- -- 27
2020-07-26 00:00:00 30.8 26 Noroeste 39 Norte 0 -- -- 28
2020-07-25 23:00:00 31.6 8 Noroeste 14 Noroeste 0 -- -- 27
2020-07-25 22:00:00 32.5 4 Norte 9 Noroeste 0 -- -- 26
2020-07-25 21:00:00 34.8 6 Noroeste 15 Oeste 0 -- -- 23
2020-07-25 20:00:00 36.2 12 Noroeste 21 Noroeste 0 -- -- 20
2020-07-25 19:00:00 37.3 9 Noroeste 21 Oeste 0 -- -- 21
2020-07-25 18:00:00 38.4 12 Oeste 33 Oeste 0 -- -- 16
2020-07-25 17:00:00 39 8 Sudoeste 24 Oeste 0 -- -- 16
2020-07-25 16:00:00 38 7 Oeste 26 Sudoeste 0 -- -- 16
2020-07-25 15:00:00 37.1 10 Sudoeste 32 Sur 0 -- -- 17
2020-07-25 14:00:00 36.1 10 Sudoeste 21 Sudoeste 0 -- -- 22
2020-07-25 13:00:00 34.3 9 Nordeste 22 Este 0 -- -- 28
2020-07-25 12:00:00 32.2 13 Este 31 Nordeste 0 -- -- 32
2020-07-25 11:00:00 29.5 20 Nordeste 34 Este 0 -- -- 36
2020-07-25 10:00:00 27.2 17 Este 31 Nordeste 0 -- -- 38
2020-07-25 09:00:00 24.8 14 Nordeste 24 Nordeste 0 -- -- 41
2020-07-25 08:00:00 23.8 10 Este 22 Nordeste 0 -- -- 40
2020-07-25 07:00:00 22.2 9 Este 14 Nordeste 0 -- -- 45
2020-07-25 06:00:00 22.6 8 Este 19 Nordeste 0 -- -- 47
2020-07-25 05:00:00 26.4 10 Nordeste 28 Noroeste 0 -- -- 35
2020-07-25 04:00:00 27.4 15 Norte 38 Noroeste 0 -- -- 34
2020-07-25 03:00:00 28.1 23 Norte 40 Norte 0 -- -- 32
2020-07-25 02:00:00 28.8 21 Norte 42 Norte 0 -- -- 31
2020-07-25 01:00:00 29.8 22 Noroeste 36 Noroeste 0 -- -- 29
2020-07-25 00:00:00 30.9 17 Norte 29 Noroeste 0 -- -- 28
2020-07-24 23:00:00 31.9 16 Noroeste 27 Noroeste 0 -- -- 26
2020-07-24 22:00:00 31.6 7 Noroeste 11 Noroeste 0 -- -- 25
2020-07-24 21:00:00 34.1 8 Noroeste 21 Noroeste 0 -- -- 22
2020-07-24 20:00:00 35.4 12 Noroeste 21 Noroeste 0 -- -- 20
2020-07-24 19:00:00 36.3 8 Norte 16 Norte 0 -- -- 20
2020-07-24 18:00:00 37 5 Noroeste 21 Noroeste 0 -- -- 18
2020-07-24 17:00:00 36.6 12 Noroeste 26 Oeste 0 -- -- 17
2020-07-24 16:00:00 36.9 11 Oeste 24 Oeste 0 -- -- 19
2020-07-24 15:00:00 35.6 9 Noroeste 23 Oeste 0 -- -- 21
2020-07-24 14:00:00 34.7 13 Noroeste 23 Noroeste 0 -- -- 24
2020-07-24 13:00:00 34 13 Noroeste 20 Noroeste 0 -- -- 26
2020-07-24 12:00:00 32.4 9 Oeste 21 Noroeste 0 -- -- 30
2020-07-24 11:00:00 30.6 10 Noroeste 20 Noroeste 0 -- -- 34
2020-07-24 10:00:00 28.5 5 Noroeste 14 Este 0 -- -- 37
2020-07-24 09:00:00 25.2 4 Sudeste 19 Noroeste 0 -- -- 51
2020-07-24 08:00:00 26.2 5 Noroeste 19 Norte 0 -- -- 40
2020-07-24 07:00:00 25.7 5 Sur 27 Norte 0 -- -- 44
2020-07-24 06:00:00 26.5 17 Norte 33 Noroeste 0 -- -- 42
2020-07-24 05:00:00 27 17 Noroeste 37 Noroeste 0 -- -- 41
2020-07-24 04:00:00 27.8 23 Norte 37 Noroeste 0 -- -- 40
2020-07-24 03:00:00 28.7 22 Norte 40 Norte 0 -- -- 38
2020-07-24 02:00:00 29.6 24 Noroeste 39 Noroeste 0 -- -- 36
2020-07-24 01:00:00 30.2 23 Noroeste 39 Norte 0 -- -- 35
2020-07-24 00:00:00 30.8 23 Noroeste 42 Noroeste 0 -- -- 38
2020-07-23 23:00:00 32.1 22 Noroeste 33 Noroeste 0 -- -- 37
2020-07-23 22:00:00 32.4 10 Oeste 16 Noroeste 0 -- -- 33
2020-07-23 21:00:00 35 8 Oeste 19 Oeste 0 -- -- 28
2020-07-23 20:00:00 36.4 7 Sudoeste 18 Sudoeste 0 -- -- 25
2020-07-23 19:00:00 36.8 9 Noroeste 21 Oeste 0 -- -- 25
2020-07-23 18:00:00 37.1 10 Oeste 25 Noroeste 0 -- -- 25
2020-07-23 17:00:00 37.9 8 Noroeste 27 Sudoeste 0 -- -- 25
2020-07-23 16:00:00 36.9 9 Sur 19 Sudoeste 0 -- -- 28
2020-07-23 15:00:00 35.8 12 Sudoeste 19 Sudoeste 0 -- -- 30
2020-07-23 14:00:00 35.2 4 Sudeste 13 Oeste 0 -- -- 34
2020-07-23 13:00:00 34 5 Sur 13 Sur 0 -- -- 37
2020-07-23 12:00:00 31.7 5 Sudeste 13 Sudeste 0 -- -- 44
2020-07-23 11:00:00 29.2 3 Sudeste 10 Este 0 -- -- 49
2020-07-23 10:00:00 25.5 8 Sudeste 13 Sudeste 0 -- -- 61
2020-07-23 09:00:00 22.9 4 Nordeste 9 Nordeste 0 -- -- 69
2020-07-23 08:00:00 21.4 3 Nordeste 8 Este 0 -- -- 76
2020-07-23 07:00:00 21.6 3 Nordeste 5 Este 0 -- -- 75
2020-07-23 06:00:00 24.9 2 Nordeste 11 Sudoeste 0 -- -- 63
2020-07-23 05:00:00 24.7 5 Oeste 9 Oeste 0 -- -- 58
2020-07-23 04:00:00 25 4 Norte 9 Sudeste 0 -- -- 61
2020-07-23 03:00:00 27 6 Norte 18 Noroeste 0 -- -- 54
2020-07-23 02:00:00 27.2 6 Oeste 14 Noroeste 0 -- -- 47
2020-07-23 01:00:00 27.9 9 Noroeste 20 Noroeste 0 -- -- 45
2020-07-23 00:00:00 28.4 6 Oeste 8 Oeste 0 -- -- 42
2020-07-22 23:00:00 28.9 3 Oeste 5 Oeste 0 -- -- 41
2020-07-22 22:00:00 30.1 3 Sudoeste 5 Sudoeste 0 -- -- 40
2020-07-22 21:00:00 32 3 Oeste 6 Noroeste 0 -- -- 35
2020-07-22 20:00:00 32.5 4 Norte 11 Noroeste 0 -- -- 35
2020-07-22 19:00:00 33.1 6 Noroeste 13 Noroeste 0 -- -- 34
2020-07-22 18:00:00 33.5 5 Noroeste 18 Noroeste 0 -- -- 33
2020-07-22 17:00:00 33.1 5 Sudeste 18 Este 0 -- -- 32
2020-07-22 16:00:00 32.5 8 Noroeste 18 Norte 0 -- -- 34
2020-07-22 15:00:00 31.8 9 Sur 18 Sudoeste 0 -- -- 36
2020-07-22 14:00:00 30.1 6 Noroeste 19 Oeste 0 -- -- 41
2020-07-22 13:00:00 29.3 8 Sudeste 17 Este 0 -- -- 44
2020-07-22 12:00:00 27.3 7 Este 17 Sudeste 0 -- -- 53
2020-07-22 11:00:00 25.6 8 Este 13 Este 0 -- -- 59
2020-07-22 10:00:00 23.2 3 Este 8 Sur 0 -- -- 67
2020-07-22 09:00:00 20.5 5 Sudeste 11 Norte 0 -- -- 82
2020-07-22 08:00:00 19.5 5 Nordeste 10 Norte 0 -- -- 89
2020-07-22 07:00:00 20.9 4 Sudeste 27 Noroeste 0 -- -- 71
2020-07-22 06:00:00 22.6 20 Norte 35 Norte 0 -- -- 60
2020-07-22 05:00:00 23.4 18 Norte 33 Norte 0 -- -- 57
2020-07-22 04:00:00 20.9 14 Norte 29 Norte 0.2 -- -- 70
2020-07-22 03:00:00 20 7 Nordeste 32 Nordeste 0.8 -- -- 80
2020-07-22 02:00:00 21.1 22 Norte 39 Norte 0.2 -- -- 72
2020-07-22 01:00:00 19.6 12 Norte 27 Norte 3.8 -- -- 82
2020-07-22 00:00:00 19.9 12 Noroeste 29 Noroeste 4.8 -- -- 76
2020-07-21 23:00:00 20.3 14 Oeste 31 Sudoeste 3.2 -- -- 80
2020-07-21 22:00:00 21.9 13 Sudoeste 23 Noroeste 2.4 -- -- 86
2020-07-21 21:00:00 23.7 5 Norte 21 Noroeste 0.6 -- -- 62
2020-07-21 20:00:00 23.9 5 Norte 20 Noroeste 0.4 -- -- 63
2020-07-21 19:00:00 25.8 9 Norte 23 Noroeste 0.2 -- -- 58
2020-07-21 18:00:00 26.5 5 Norte 28 Norte 0 -- -- 53
2020-07-21 17:00:00 29.5 16 Norte 31 Norte 0 -- -- 42
2020-07-21 16:00:00 27.5 15 Norte 37 Norte 0 -- -- 48
2020-07-21 15:00:00 27.7 21 Noroeste 31 Noroeste 0 -- -- 43
2020-07-21 14:00:00 30.7 8 Nordeste 18 Nordeste 0 -- -- 37
2020-07-21 13:00:00 30.9 8 Nordeste 24 Este 0 -- -- 36
2020-07-21 12:00:00 32.4 16 Nordeste 25 Nordeste 0 -- -- 33
2020-07-21 11:00:00 30.6 19 Nordeste 28 Este 0 -- -- 35
2020-07-21 10:00:00 29.4 11 Nordeste 33 Nordeste 0 -- -- 38
2020-07-21 09:00:00 27.3 22 Este 35 Nordeste 0 -- -- 39
2020-07-21 08:00:00 26.4 15 Nordeste 22 Nordeste 0 -- -- 31
2020-07-21 07:00:00 26.5 5 Norte 15 Nordeste 0 -- -- 31
2020-07-21 06:00:00 26.5 6 Nordeste 16 Nordeste 0 -- -- 29
2020-07-21 05:00:00 25.6 6 Nordeste 21 Sudeste 0 -- -- 31
2020-07-21 04:00:00 28.4 12 Nordeste 22 Norte 0 -- -- 27
2020-07-21 03:00:00 30 17 Norte 27 Norte 0 -- -- 22
2020-07-21 02:00:00 30.5 10 Nordeste 20 Norte 0 -- -- 20
2020-07-21 01:00:00 31.2 12 Norte 24 Norte 0 -- -- 19
2020-07-21 00:00:00 31.6 14 Norte 22 Norte 0 -- -- 19
2020-07-20 23:00:00 32.6 10 Norte 17 Noroeste 0 -- -- 14
2020-07-20 22:00:00 32.3 8 Noroeste 15 Noroeste 0 -- -- 16
2020-07-20 21:00:00 34.4 10 Noroeste 20 Noroeste 0 -- -- 17
2020-07-20 20:00:00 35.9 12 Noroeste 25 Noroeste 0 -- -- 17
2020-07-20 19:00:00 37.6 10 Noroeste 22 Oeste 0 -- -- 15
2020-07-20 18:00:00 38 9 Noroeste 25 Oeste 0 -- -- 16
2020-07-20 17:00:00 38.4 3 Oeste 19 Oeste 0 -- -- 14
2020-07-20 16:00:00 37.5 10 Sudoeste 22 Sudoeste 0 -- -- 15
2020-07-20 15:00:00 36.7 10 Oeste 28 Sudoeste 0 -- -- 17
2020-07-20 14:00:00 36.1 10 Sudoeste 23 Oeste 0 -- -- 17
2020-07-20 13:00:00 34.1 4 Sudeste 11 Sur 0 -- -- 19
2020-07-20 12:00:00 32 3 Nordeste 10 Este 0 -- -- 25
2020-07-20 11:00:00 29 4 Sudeste 11 Este 0 -- -- 31
2020-07-20 10:00:00 26.1 4 Este 8 Este 0 -- -- 33
2020-07-20 09:00:00 22.6 2 Este 6 Nordeste 0 -- -- 35
2020-07-20 08:00:00 20.2 4 Este 6 Este 0 -- -- 37
2020-07-20 07:00:00 20.3 0 Calma 6 Este 0 -- -- 37
2020-07-20 06:00:00 20.2 5 Este 9 Nordeste 0 -- -- 37
2020-07-20 05:00:00 21.3 5 Nordeste 7 Nordeste 0 -- -- 34
2020-07-20 04:00:00 23.9 4 Sudeste 20 Noroeste 0 -- -- 31
2020-07-20 03:00:00 24.8 5 Oeste 12 Sudoeste 0 -- -- 37
2020-07-20 02:00:00 25 9 Sudoeste 13 Sudoeste 0 -- -- 25
2020-07-20 01:00:00 26.4 9 Sudoeste 14 Sudoeste 0 -- -- 23
2020-07-20 00:00:00 27.2 8 Sudoeste 14 Sudoeste 0 -- -- 21
2020-07-19 23:00:00 29.4 8 Oeste 15 Oeste 0 -- -- 18
2020-07-19 22:00:00 30.2 6 Oeste 19 Oeste 0 -- -- 18
2020-07-19 21:00:00 33.7 12 Oeste 26 Oeste 0 -- -- 16
2020-07-19 20:00:00 35.2 14 Oeste 41 Sudoeste 0 -- -- 13
2020-07-19 19:00:00 36.5 22 Sudoeste 42 Sudoeste 0 -- -- 12
2020-07-19 18:00:00 37.7 15 Oeste 30 Sudoeste 0 -- -- 14
2020-07-19 17:00:00 37.1 13 Sudoeste 28 Sudoeste 0 -- -- 17
2020-07-19 16:00:00 36.7 11 Sudoeste 30 Sur 0 -- -- 15
2020-07-19 15:00:00 36.1 14 Sudoeste 28 Sudoeste 0 -- -- 18
2020-07-19 14:00:00 34.9 14 Sudoeste 26 Sur 0 -- -- 19
2020-07-19 13:00:00 33.2 12 Sur 24 Sudoeste 0 -- -- 24
2020-07-19 12:00:00 31.5 10 Sudoeste 18 Sudoeste 0 -- -- 27
2020-07-19 11:00:00 29.5 5 Sudoeste 17 Sudoeste 0 -- -- 32
2020-07-19 10:00:00 27 6 Sudoeste 13 Sudoeste 0 -- -- 35
2020-07-19 09:00:00 24.2 6 Sudoeste 9 Sudoeste 0 -- -- 42
2020-07-19 08:00:00 22.7 5 Sudoeste 6 Sur 0 -- -- 45
2020-07-19 07:00:00 22.2 0 Calma 4 Sur 0 -- -- 49
2020-07-19 06:00:00 23.7 0 Calma 5 Oeste 0 -- -- 46
2020-07-19 05:00:00 24.3 3 Sudoeste 5 Sur 0 -- -- 45
2020-07-19 04:00:00 25.7 8 Sudoeste 13 Oeste 0 -- -- 42
2020-07-19 03:00:00 27.3 10 Oeste 19 Sudoeste 0 -- -- 39
2020-07-19 02:00:00 28.1 8 Oeste 20 Sudoeste 0 -- -- 36
2020-07-19 01:00:00 30 12 Oeste 30 Sudoeste 0 -- -- 33
2020-07-19 00:00:00 30.6 13 Sudoeste 23 Sudoeste 0 -- -- 30
2020-07-18 23:00:00 31.9 2 Norte 6 Norte 0 -- -- 21
2020-07-18 22:00:00 33.1 4 Norte 7 Norte 0 -- -- 21
2020-07-18 21:00:00 36.1 4 Norte 15 Noroeste 0 -- -- 18
2020-07-18 20:00:00 37.1 11 Noroeste 22 Oeste 0 -- -- 17
2020-07-18 19:00:00 38.5 9 Oeste 26 Noroeste 0 -- -- 16
2020-07-18 18:00:00 38.8 15 Oeste 28 Oeste 0 -- -- 16
2020-07-18 17:00:00 38.4 14 Noroeste 29 Noroeste 0 -- -- 19
2020-07-18 16:00:00 37.7 13 Norte 27 Noroeste 0 -- -- 17
2020-07-18 15:00:00 37 6 Este 22 Este 0 -- -- 18
2020-07-18 14:00:00 35.1 8 Nordeste 23 Nordeste 0 -- -- 21
2020-07-18 13:00:00 33 13 Nordeste 28 Este 0 -- -- 26
2020-07-18 12:00:00 31.2 17 Nordeste 30 Nordeste 0 -- -- 27
2020-07-18 11:00:00 28.7 19 Nordeste 35 Nordeste 0 -- -- 33
2020-07-18 10:00:00 26.4 22 Nordeste 40 Nordeste 0 -- -- 36
2020-07-18 09:00:00 24.7 23 Nordeste 35 Nordeste 0 -- -- 32
2020-07-18 08:00:00 23.9 21 Nordeste 32 Nordeste 0 -- -- 27
2020-07-18 07:00:00 24 17 Nordeste 26 Nordeste 0 -- -- 24
2020-07-18 06:00:00 24.6 14 Nordeste 23 Nordeste 0 -- -- 22
2020-07-18 05:00:00 25.3 17 Nordeste 27 Nordeste 0 -- -- 23
2020-07-18 04:00:00 26.2 13 Nordeste 24 Nordeste 0 -- -- 21
2020-07-18 03:00:00 28.2 15 Nordeste 26 Nordeste 0 -- -- 19
2020-07-18 02:00:00 28.2 10 Nordeste 20 Norte 0 -- -- 19
2020-07-18 01:00:00 28.7 11 Norte 23 Norte 0 -- -- 20
2020-07-18 00:00:00 30 13 Norte 27 Norte 0 -- -- 18
2020-07-17 23:00:00 31.2 8 Norte 25 Norte 0 -- -- 16
2020-07-17 22:00:00 32.9 17 Norte 27 Norte 0 -- -- 15
2020-07-17 21:00:00 34.8 14 Norte 28 Noroeste 0 -- -- 15
2020-07-17 20:00:00 36.1 16 Norte 29 Norte 0 -- -- 16
2020-07-17 19:00:00 37.7 15 Noroeste 29 Oeste 0 -- -- 19
2020-07-17 18:00:00 38.1 10 Norte 35 Norte 0 -- -- 19
2020-07-17 17:00:00 38.3 17 Noroeste 28 Oeste 0 -- -- 18
2020-07-17 16:00:00 37.6 9 Norte 27 Nordeste 0 -- -- 21
2020-07-17 15:00:00 36.9 11 Este 27 Este 0 -- -- 21
2020-07-17 14:00:00 36.1 8 Sudeste 23 Este 0 -- -- 22
2020-07-17 13:00:00 34.4 11 Nordeste 25 Este 0 -- -- 25
2020-07-17 12:00:00 32.7 17 Este 32 Este 0 -- -- 28
2020-07-17 11:00:00 30.5 20 Nordeste 34 Este 0 -- -- 31
2020-07-17 10:00:00 29.1 17 Nordeste 36 Este 0 -- -- 34
2020-07-17 09:00:00 27 21 Nordeste 32 Este 0 -- -- 36
2020-07-17 08:00:00 26.2 13 Nordeste 23 Nordeste 0 -- -- 36
2020-07-17 07:00:00 25.6 10 Nordeste 19 Nordeste 0 -- -- 35
2020-07-17 06:00:00 26.7 12 Nordeste 21 Nordeste 0 -- -- 32
2020-07-17 05:00:00 27.7 11 Nordeste 19 Norte 0 -- -- 29
2020-07-17 04:00:00 28.7 13 Norte 20 Norte 0 -- -- 26
2020-07-17 03:00:00 28.4 6 Norte 20 Norte 0 -- -- 26
2020-07-17 02:00:00 29.3 6 Nordeste 23 Norte 0 -- -- 24
2020-07-17 01:00:00 29.8 13 Norte 28 Noroeste 0 -- -- 26
2020-07-17 00:00:00 31 12 Norte 21 Noroeste 0 -- -- 27
2020-07-16 23:00:00 31.5 8 Noroeste 12 Noroeste 0 -- -- 28
2020-07-16 22:00:00 32 8 Noroeste 12 Noroeste 0 -- -- 27
2020-07-16 21:00:00 35.6 6 Oeste 13 Noroeste 0 -- -- 21
2020-07-16 20:00:00 36.2 9 Noroeste 20 Oeste 0 -- -- 20
2020-07-16 19:00:00 37.4 9 Oeste 18 Noroeste 0 -- -- 20
2020-07-16 18:00:00 37.4 11 Noroeste 21 Norte 0 -- -- 21
2020-07-16 17:00:00 37.6 8 Noroeste 20 Noroeste 0 -- -- 21
2020-07-16 16:00:00 36.9 11 Sudeste 23 Nordeste 0 -- -- 22
2020-07-16 15:00:00 36.2 10 Este 30 Nordeste 0 -- -- 24
2020-07-16 14:00:00 34.4 18 Este 31 Nordeste 0 -- -- 27
2020-07-16 13:00:00 32.5 21 Nordeste 38 Este 0 -- -- 29
2020-07-16 12:00:00 30.4 19 Nordeste 36 Nordeste 0 -- -- 34
2020-07-16 11:00:00 28.1 22 Nordeste 37 Este 0 -- -- 37
2020-07-16 10:00:00 26.2 23 Nordeste 39 Nordeste 0 -- -- 39
2020-07-16 09:00:00 24.4 26 Este 43 Nordeste 0 -- -- 42
2020-07-16 08:00:00 24 21 Este 40 Este 0 -- -- 42
2020-07-16 07:00:00 24.2 22 Este 50 Este 0 -- -- 40
2020-07-16 06:00:00 24.8 22 Este 51 Este 0 -- -- 38
2020-07-16 05:00:00 25.6 20 Nordeste 37 Nordeste 0 -- -- 32
2020-07-16 04:00:00 26 15 Nordeste 23 Nordeste 0 -- -- 29
2020-07-16 03:00:00 27.1 14 Nordeste 21 Este 0 -- -- 28
2020-07-16 02:00:00 27 9 Nordeste 18 Norte 0 -- -- 28
2020-07-16 01:00:00 27.9 7 Nordeste 17 Norte 0 -- -- 26
2020-07-16 00:00:00 28.7 9 Norte 21 Norte 0 -- -- 26
2020-07-15 23:00:00 30.1 12 Norte 22 Norte 0 -- -- 25
2020-07-15 22:00:00 31.1 12 Norte 20 Norte 0 -- -- 25
2020-07-15 21:00:00 33.4 6 Nordeste 18 Nordeste 0 -- -- 27
2020-07-15 20:00:00 34.3 6 Norte 18 Nordeste 0 -- -- 23
2020-07-15 19:00:00 34.9 10 Nordeste 24 Este 0 -- -- 24
2020-07-15 18:00:00 35.3 8 Nordeste 26 Nordeste 0 -- -- 24
2020-07-15 17:00:00 34.3 12 Este 31 Este 0 -- -- 26
2020-07-15 16:00:00 34.4 13 Este 32 Sudeste 0 -- -- 28
2020-07-15 15:00:00 33.4 16 Nordeste 35 Nordeste 0 -- -- 30
2020-07-15 14:00:00 32.2 19 Nordeste 36 Este 0 -- -- 32
2020-07-15 13:00:00 30.1 23 Nordeste 40 Este 0 -- -- 36
2020-07-15 12:00:00 28.1 27 Nordeste 43 Este 0 -- -- 40
2020-07-15 11:00:00 26.6 23 Nordeste 40 Nordeste 0 -- -- 43
2020-07-15 10:00:00 24.5 25 Nordeste 45 Este 0 -- -- 48
2020-07-15 09:00:00 22.6 28 Nordeste 42 Este 0 -- -- 58
2020-07-15 08:00:00 21.9 22 Nordeste 41 Este 0 -- -- 60
2020-07-15 07:00:00 22 21 Nordeste 39 Nordeste 0 -- -- 59
2020-07-15 06:00:00 22.6 25 Nordeste 46 Este 0 -- -- 57
2020-07-15 05:00:00 22.8 18 Nordeste 45 Este 0 -- -- 58
2020-07-15 04:00:00 23.7 23 Este 42 Este 0 -- -- 54
2020-07-15 03:00:00 24.7 25 Este 49 Este 0 -- -- 51
2020-07-15 02:00:00 26.2 24 Nordeste 42 Este 0 -- -- 43
2020-07-15 01:00:00 27.3 10 Norte 18 Noroeste 0 -- -- 23
2020-07-15 00:00:00 28.4 12 Norte 29 Norte 0 -- -- 22
2020-07-14 23:00:00 29.8 17 Norte 32 Norte 0 -- -- 21
2020-07-14 22:00:00 31 15 Norte 28 Norte 0 -- -- 20
2020-07-14 21:00:00 32.7 16 Norte 31 Norte 0 -- -- 19
2020-07-14 20:00:00 34 15 Norte 27 Nordeste 0 -- -- 19
2020-07-14 19:00:00 35 13 Noroeste 26 Noroeste 0 -- -- 20
2020-07-14 18:00:00 35.9 13 Oeste 28 Oeste 0 -- -- 20
2020-07-14 17:00:00 35.8 17 Noroeste 30 Noroeste 0 -- -- 19
2020-07-14 16:00:00 36.2 13 Noroeste 26 Noroeste 0 -- -- 21
2020-07-14 15:00:00 34.6 12 Este 27 Nordeste 0 -- -- 27
2020-07-14 14:00:00 33.8 11 Este 22 Nordeste 0 -- -- 29
2020-07-14 13:00:00 32.1 10 Norte 23 Nordeste 0 -- -- 31
2020-07-14 12:00:00 30.6 10 Nordeste 25 Este 0 -- -- 33
2020-07-14 11:00:00 28.7 17 Este 36 Este 0 -- -- 39
2020-07-14 10:00:00 26.5 14 Nordeste 32 Este 0 -- -- 44
2020-07-14 09:00:00 25.6 13 Nordeste 23 Este 0 -- -- 45
2020-07-14 08:00:00 24.9 12 Nordeste 20 Nordeste 0 -- -- 43
2020-07-14 07:00:00 25 11 Nordeste 20 Nordeste 0 -- -- 42
2020-07-14 06:00:00 25.4 10 Nordeste 19 Nordeste 0 -- -- 41
2020-07-14 05:00:00 26.2 9 Nordeste 17 Noroeste 0 -- -- 39
2020-07-14 04:00:00 26.2 9 Norte 21 Norte 0 -- -- 38
2020-07-14 03:00:00 27.2 8 Norte 23 Noroeste 0 -- -- 36
2020-07-14 02:00:00 28.1 14 Norte 33 Noroeste 0 -- -- 34
2020-07-14 01:00:00 28.9 19 Norte 32 Norte 0 -- -- 32
2020-07-14 00:00:00 30.1 18 Norte 35 Norte 0 -- -- 29
2020-07-13 23:00:00 31.1 19 Norte 37 Norte 0 -- -- 27
2020-07-13 22:00:00 31.9 15 Norte 32 Noroeste 0 -- -- 25
2020-07-13 21:00:00 33.5 14 Norte 28 Noroeste 0 -- -- 22
2020-07-13 20:00:00 34.6 14 Norte 26 Norte 0 -- -- 21
2020-07-13 19:00:00 35.8 12 Norte 28 Norte 0 -- -- 20
2020-07-13 18:00:00 36.3 11 Noroeste 33 Noroeste 0 -- -- 19
2020-07-13 17:00:00 36.2 17 Norte 30 Noroeste 0 -- -- 21
2020-07-13 16:00:00 36.1 10 Norte 22 Norte 0 -- -- 24
2020-07-13 15:00:00 34.6 10 Nordeste 24 Nordeste 0 -- -- 29
2020-07-13 14:00:00 33.1 14 Nordeste 22 Nordeste 0 -- -- 33
2020-07-13 13:00:00 31.4 11 Nordeste 25 Este 0 -- -- 38
2020-07-13 12:00:00 30.1 15 Este 28 Este 0 -- -- 41
2020-07-13 11:00:00 28 20 Nordeste 35 Este 0 -- -- 47
2020-07-13 10:00:00 26.4 20 Nordeste 35 Nordeste 0 -- -- 53
2020-07-13 09:00:00 24.9 15 Nordeste 31 Nordeste 0 -- -- 57
2020-07-13 08:00:00 23.8 11 Nordeste 22 Nordeste 0 -- -- 58
2020-07-13 07:00:00 23.6 13 Nordeste 26 Nordeste 0 -- -- 57
2020-07-13 06:00:00 24.2 14 Nordeste 27 Nordeste 0 -- -- 56
2020-07-13 05:00:00 24.7 15 Nordeste 29 Nordeste 0 -- -- 55
2020-07-13 04:00:00 25.2 14 Nordeste 33 Nordeste 0 -- -- 53
2020-07-13 03:00:00 26 17 Nordeste 35 Nordeste 0 -- -- 50
2020-07-13 02:00:00 26.9 18 Nordeste 34 Nordeste 0 -- -- 48
2020-07-13 01:00:00 28.4 15 Norte 35 Norte 0 -- -- 39
2020-07-13 00:00:00 28.9 16 Norte 30 Norte 0 -- -- 38
2020-07-12 23:00:00 29.4 11 Norte 27 Norte 0 -- -- 37
2020-07-12 22:00:00 30 12 Norte 26 Norte 0 -- -- 37
2020-07-12 21:00:00 31.5 12 Noroeste 26 Noroeste 0 -- -- 31
2020-07-12 20:00:00 32.5 17 Noroeste 30 Noroeste 0 -- -- 29
2020-07-12 19:00:00 33.9 16 Noroeste 32 Oeste 0 -- -- 26
2020-07-12 18:00:00 35.3 13 Oeste 30 Oeste 0 -- -- 24
2020-07-12 17:00:00 34.5 17 Noroeste 34 Oeste 0 -- -- 26
2020-07-12 16:00:00 34.7 14 Noroeste 31 Noroeste 0 -- -- 25
2020-07-12 15:00:00 34.8 6 Noroeste 30 Nordeste 0 -- -- 25
2020-07-12 14:00:00 32.6 13 Nordeste 27 Nordeste 0 -- -- 36
2020-07-12 13:00:00 31.2 10 Norte 24 Este 0 -- -- 41
2020-07-12 12:00:00 29.1 9 Nordeste 24 Nordeste 0 -- -- 47
2020-07-12 11:00:00 27.4 13 Nordeste 23 Este 0 -- -- 52
2020-07-12 10:00:00 25.7 10 Nordeste 21 Nordeste 0 -- -- 57
2020-07-12 09:00:00 25.2 12 Nordeste 21 Nordeste 0 -- -- 57
2020-07-12 08:00:00 23.9 3 Nordeste 14 Nordeste 0 -- -- 48
2020-07-12 07:00:00 24.4 9 Este 35 Norte 0 -- -- 50
2020-07-12 06:00:00 24.8 22 Norte 47 Norte 0 -- -- 48
2020-07-12 05:00:00 25.1 28 Norte 56 Noroeste 0 -- -- 47
2020-07-12 04:00:00 25.5 35 Noroeste 57 Norte 0 -- -- 45
2020-07-12 03:00:00 27.2 33 Norte 60 Norte 0 -- -- 39
2020-07-12 02:00:00 26.9 35 Noroeste 62 Noroeste 0 -- -- 39
2020-07-12 01:00:00 26.7 37 Noroeste 57 Noroeste 0 -- -- 39
2020-07-12 00:00:00 27.7 29 Norte 52 Norte 0 -- -- 35
2020-07-11 23:00:00 29.9 27 Norte 43 Noroeste 0 -- -- 32
2020-07-11 22:00:00 33.9 11 Nordeste 18 Nordeste 0 -- -- 25
2020-07-11 21:00:00 35.5 9 Nordeste 24 Nordeste 0 -- -- 24
2020-07-11 20:00:00 36.6 13 Este 28 Este 0 -- -- 23
2020-07-11 19:00:00 37.9 14 Este 30 Este 0 -- -- 22
2020-07-11 18:00:00 38 14 Este 27 Nordeste 0 -- -- 22
2020-07-11 17:00:00 38.2 15 Este 35 Este 0 -- -- 22
2020-07-11 16:00:00 37.6 7 Este 29 Nordeste 0 -- -- 22
2020-07-11 15:00:00 37 15 Nordeste 36 Nordeste 0 -- -- 25
2020-07-11 14:00:00 35.8 18 Nordeste 36 Nordeste 0 -- -- 28
2020-07-11 13:00:00 33.8 24 Nordeste 36 Este 0 -- -- 33
2020-07-11 12:00:00 31.7 25 Nordeste 41 Nordeste 0 -- -- 37
2020-07-11 11:00:00 29.5 27 Este 44 Nordeste 0 -- -- 41
2020-07-11 10:00:00 27.7 27 Nordeste 42 Este 0 -- -- 44
2020-07-11 09:00:00 25.8 23 Nordeste 37 Nordeste 0 -- -- 47
2020-07-11 08:00:00 24.8 17 Este 35 Nordeste 0 -- -- 47
2020-07-11 07:00:00 23.9 22 Nordeste 35 Nordeste 0 -- -- 48
2020-07-11 06:00:00 24.8 17 Nordeste 29 Nordeste 0 -- -- 43
2020-07-11 05:00:00 26.9 17 Nordeste 24 Nordeste 0 -- -- 36
2020-07-11 04:00:00 26.4 10 Nordeste 15 Nordeste 0 -- -- 36
2020-07-11 03:00:00 27 4 Noroeste 9 Oeste 0 -- -- 35
2020-07-11 02:00:00 26.6 7 Oeste 9 Oeste 0 -- -- 36
2020-07-11 01:00:00 28.8 6 Nordeste 10 Norte 0 -- -- 32
2020-07-11 00:00:00 29.6 6 Norte 14 Norte 0 -- -- 31
2020-07-10 23:00:00 30.4 7 Norte 12 Norte 0 -- -- 32
2020-07-10 22:00:00 31.7 8 Noroeste 14 Noroeste 0 -- -- 31
2020-07-10 21:00:00 34 9 Noroeste 17 Noroeste 0 -- -- 27
2020-07-10 20:00:00 35 7 Norte 19 Noroeste 0 -- -- 25
2020-07-10 19:00:00 36.6 7 Sudoeste 21 Sudoeste 0 -- -- 22
2020-07-10 18:00:00 36.1 9 Norte 26 Oeste 0 -- -- 23
2020-07-10 17:00:00 36.3 11 Noroeste 24 Oeste 0 -- -- 22
2020-07-10 16:00:00 35.2 8 Norte 23 Noroeste 0 -- -- 24
2020-07-10 15:00:00 34.6 8 Norte 18 Norte 0 -- -- 26
2020-07-10 14:00:00 33.4 8 Norte 18 Este 0 -- -- 28
2020-07-10 13:00:00 31.9 8 Nordeste 17 Este 0 -- -- 31
2020-07-10 12:00:00 29.8 10 Este 22 Nordeste 0 -- -- 35
2020-07-10 11:00:00 27.9 13 Nordeste 24 Nordeste 0 -- -- 39
2020-07-10 10:00:00 25.6 18 Nordeste 29 Nordeste 0 -- -- 43
2020-07-10 09:00:00 23.4 18 Nordeste 27 Nordeste 0 -- -- 50
2020-07-10 08:00:00 22.2 18 Nordeste 30 Nordeste 0 -- -- 52
2020-07-10 07:00:00 22.3 21 Nordeste 35 Este 0 -- -- 50
2020-07-10 06:00:00 22.5 22 Nordeste 35 Nordeste 0 -- -- 49
2020-07-10 05:00:00 23.4 23 Este 38 Este 0 -- -- 46
2020-07-10 04:00:00 24 15 Nordeste 28 Nordeste 0 -- -- 44
2020-07-10 03:00:00 25 17 Nordeste 31 Este 0 -- -- 42
2020-07-10 02:00:00 25.6 15 Nordeste 29 Nordeste 0 -- -- 42
2020-07-10 01:00:00 26.9 19 Nordeste 31 Este 0 -- -- 37
2020-07-10 00:00:00 28.3 12 Nordeste 21 Nordeste 0 -- -- 30
2020-07-09 23:00:00 29.2 4 Noroeste 9 Oeste 0 -- -- 27
2020-07-09 22:00:00 30.2 6 Noroeste 10 Oeste 0 -- -- 26
2020-07-09 21:00:00 32.8 4 Oeste 18 Oeste 0 -- -- 23
2020-07-09 20:00:00 33.6 8 Oeste 21 Oeste 0 -- -- 22
2020-07-09 19:00:00 34.9 8 Oeste 21 Oeste 0 -- -- 22
2020-07-09 18:00:00 35.1 9 Oeste 21 Noroeste 0 -- -- 22
2020-07-09 17:00:00 34.9 12 Oeste 22 Nordeste 0 -- -- 22
2020-07-09 16:00:00 34.6 11 Oeste 25 Norte 0 -- -- 20
2020-07-09 15:00:00 33.9 4 Este 20 Sudoeste 0 -- -- 22
2020-07-09 14:00:00 32.4 6 Noroeste 17 Sudoeste 0 -- -- 25
2020-07-09 13:00:00 31.4 5 Este 13 Nordeste 0 -- -- 27
2020-07-09 12:00:00 29.1 7 Sudoeste 18 Sur 0 -- -- 34
2020-07-09 11:00:00 26.9 6 Sudoeste 13 Sur 0 -- -- 42
2020-07-09 10:00:00 24 3 Sudoeste 7 Sudoeste 0 -- -- 51
2020-07-09 09:00:00 20.7 2 Este 6 Sudeste 0 -- -- 61
2020-07-09 08:00:00 19.3 3 Este 5 Este 0 -- -- 65
2020-07-09 07:00:00 18.8 0 Calma 6 Sudoeste 0 -- -- 68
2020-07-09 06:00:00 19.2 4 Sudoeste 7 Sudoeste 0 -- -- 63
2020-07-09 05:00:00 19.1 4 Nordeste 6 Este 0 -- -- 59
2020-07-09 04:00:00 20.7 3 Este 9 Oeste 0 -- -- 62
2020-07-09 03:00:00 21.6 4 Sudoeste 15 Sudoeste 0 -- -- 59
2020-07-09 02:00:00 22.8 12 Sudoeste 18 Sudoeste 0 -- -- 48
2020-07-09 01:00:00 24 11 Oeste 15 Sudoeste 0 -- -- 35
2020-07-09 00:00:00 25.4 10 Sudoeste 15 Oeste 0 -- -- 28
2020-07-08 23:00:00 27.5 8 Oeste 19 Oeste 0 -- -- 23
2020-07-08 22:00:00 29.7 9 Oeste 25 Oeste 0 -- -- 24
2020-07-08 21:00:00 32.6 13 Oeste 29 Sudoeste 0 -- -- 21
2020-07-08 20:00:00 34.5 11 Sudoeste 29 Sudoeste 0 -- -- 11
2020-07-08 19:00:00 35.9 14 Sudoeste 32 Sudoeste 0 -- -- 12
2020-07-08 18:00:00 36.1 22 Sur 37 Sur 0 -- -- 14
2020-07-08 17:00:00 36.9 17 Sur 37 Sur 0 -- -- 15
2020-07-08 16:00:00 36.9 19 Sudoeste 53 Noroeste 0 -- -- 17
2020-07-08 15:00:00 36.6 6 Sudoeste 30 Sur 0 -- -- 21
2020-07-08 14:00:00 35.3 9 Este 19 Este 0 -- -- 26
2020-07-08 13:00:00 33.1 8 Sur 16 Nordeste 0 -- -- 30
2020-07-08 12:00:00 31.8 4 Sudeste 17 Este 0 -- -- 33
2020-07-08 11:00:00 29.3 3 Sur 8 Sudeste 0 -- -- 36
2020-07-08 10:00:00 25.5 4 Nordeste 9 Nordeste 0 -- -- 41
2020-07-08 09:00:00 24.2 4 Este 6 Este 0 -- -- 46
2020-07-08 08:00:00 21.9 3 Este 6 Sudeste 0 -- -- 49
2020-07-08 07:00:00 23 0 Calma 12 Oeste 0 -- -- 50
2020-07-08 06:00:00 24.4 7 Oeste 13 Sudoeste 0 -- -- 43
2020-07-08 05:00:00 25.3 8 Sudoeste 12 Sudoeste 0 -- -- 37
2020-07-08 04:00:00 25.8 4 Oeste 8 Nordeste 0.2 -- -- 32
2020-07-08 03:00:00 27 6 Nordeste 12 Este 0 -- -- 29
2020-07-08 02:00:00 28.9 4 Este 7 Sudeste 0 -- -- 26
2020-07-08 01:00:00 30.2 4 Sur 9 Oeste 0 -- -- 24
2020-07-08 00:00:00 30.9 4 Oeste 10 Oeste 0 -- -- 22